Time;durP1;ratioP1;P1;durP2;ratioP2;P2;SDS_P1;SDS_P2;PMS_P1;PMS_P2;Temp;Humidity;BMP_temperature;BMP_pressure;BME280_temperature;BME280_humidity;BME280_pressure;Samples;Min_cycle;Max_cycle;Signal;HPM_P1;HPM_P2
2022/08/13 00:00:39;;;;;;;0.00;0.00;;;18.00;99.90;16.70;96700.00;;;;5035961;28;20234;-74
2022/08/13 00:03:15;;;;;;;0.00;0.00;;;17.90;99.90;16.70;96674.00;;;;5038723;28;20222;-74
2022/08/13 00:06:04;;;;;;;0.10;0.10;;;17.70;99.90;16.70;96682.00;;;;5033949;28;20222;-73
2022/08/13 00:08:35;;;;;;;0.00;0.00;;;17.70;99.90;16.30;96693.00;;;;5033766;28;20195;-75
2022/08/13 00:11:07;;;;;;;0.00;0.00;;;17.70;99.90;16.60;96702.00;;;;5033657;28;20191;-74
2022/08/13 00:13:35;;;;;;;0.00;0.00;;;17.70;99.90;16.70;96708.00;;;;5017483;28;20196;-75
2022/08/13 00:16:11;;;;;;;0.00;0.00;;;17.70;99.90;16.70;96723.00;;;;5020451;28;20246;-75
2022/08/13 00:18:43;;;;;;;0.00;0.00;;;17.80;99.90;16.70;96733.00;;;;5031650;28;20195;-74
2022/08/13 00:21:13;;;;;;;0.00;0.00;;;17.80;99.90;16.40;96699.00;;;;5030260;28;20206;-75
2022/08/13 00:23:43;;;;;;;0.00;0.00;;;17.60;99.90;16.40;96685.00;;;;5033489;28;20744;-75
2022/08/13 00:26:28;;;;;;;0.00;0.00;;;17.50;99.90;16.30;96697.00;;;;5058141;22;20241;-75
2022/08/13 00:29:02;;;;;;;0.00;0.00;;;17.40;99.90;16.40;96686.00;;;;5049463;28;20669;-75
2022/08/13 00:31:31;;;;;;;0.00;0.00;;;17.50;99.90;16.30;96605.00;;;;5048507;28;20679;-77
2022/08/13 00:34:01;;;;;;;0.00;0.00;;;17.40;99.90;16.20;96603.00;;;;5053725;28;20719;-76
2022/08/13 00:36:34;;;;;;;0.00;0.00;;;17.40;99.90;16.30;96679.00;;;;5045719;28;20231;-76
2022/08/13 00:39:09;;;;;;;0.00;0.00;;;17.40;99.90;16.30;96685.00;;;;5034257;28;20552;-76
2022/08/13 00:41:38;;;;;;;0.00;0.00;;;17.40;99.90;16.40;96735.00;;;;5033885;28;20696;-77
2022/08/13 00:44:31;;;;;;;0.00;0.00;;;17.50;99.90;16.30;96705.00;;;;5033259;28;20265;-77
2022/08/13 00:49:51;;;;;;;0.00;0.00;;;17.40;99.90;16.40;96714.00;;;;5036055;28;20600;-77
2022/08/13 00:52:31;;;;;;;0.00;0.00;;;17.60;99.90;16.30;96711.00;;;;5032429;28;20221;-76
2022/08/13 00:55:01;;;;;;;0.00;0.00;;;17.40;99.90;16.30;96734.00;;;;5033003;28;20234;-77
2022/08/13 00:57:30;;;;;;;0.10;0.10;;;17.30;99.90;16.10;96701.00;;;;5039367;28;20230;-77
2022/08/13 01:00:06;;;;;;;0.00;0.00;;;17.20;99.90;16.00;96708.00;;;;5019507;28;20623;-76
2022/08/13 01:02:40;;;;;;;0.00;0.00;;;17.10;99.90;15.90;96603.00;;;;5023470;28;20199;-76
2022/08/13 01:05:10;;;;;;;0.00;0.00;;;17.00;99.90;15.90;96579.00;;;;5013478;28;20223;-74
2022/08/13 01:07:43;;;;;;;0.00;0.00;;;16.90;99.90;15.80;96597.00;;;;5029030;28;20223;-74
2022/08/13 01:10:25;;;;;;;0.00;0.00;;;16.90;99.90;15.80;96594.00;;;;5032379;28;20194;-74
2022/08/13 01:12:56;;;;;;;0.00;0.00;;;16.90;99.90;15.80;96644.00;;;;5032751;28;20689;-75
2022/08/13 01:15:24;;;;;;;0.10;0.10;;;16.80;99.90;15.80;96654.00;;;;5032985;28;20195;-75
2022/08/13 01:18:14;;;;;;;0.00;0.00;;;16.80;99.90;15.80;96663.00;;;;5032590;28;20218;-75
2022/08/13 01:20:48;;;;;;;0.00;0.00;;;16.80;99.90;15.70;96661.00;;;;5032574;28;20210;-75
2022/08/13 01:23:20;;;;;;;0.10;0.10;;;16.80;99.90;15.50;96657.00;;;;5032895;28;20202;-77
2022/08/13 01:26:01;;;;;;;0.10;0.10;;;16.60;99.90;15.50;96565.00;;;;5032535;28;20305;-76
2022/08/13 01:28:38;;;;;;;0.00;0.00;;;16.70;99.90;15.50;96600.00;;;;5033101;28;20518;-74
2022/08/13 01:31:14;;;;;;;0.00;0.00;;;16.60;99.90;15.40;96588.00;;;;5032072;28;20199;-74
2022/08/13 01:33:48;;;;;;;0.00;0.00;;;16.50;99.90;15.40;96577.00;;;;5032579;28;20194;-75
2022/08/13 01:36:21;;;;;;;0.10;0.10;;;16.50;99.90;15.30;96567.00;;;;5033203;28;20218;-75
2022/08/13 01:39:11;;;;;;;0.10;0.10;;;16.50;99.90;15.20;96562.00;;;;5032427;28;20214;-75
2022/08/13 01:41:48;;;;;;;0.10;0.10;;;16.40;99.90;15.10;96535.00;;;;5031439;28;20688;-75
2022/08/13 01:44:24;;;;;;;0.10;0.10;;;16.30;99.90;15.00;96539.00;;;;5031815;28;20205;-75
2022/08/13 01:53:04;;;;;;;0.00;0.00;;;16.10;99.90;15.10;96551.00;;;;5031978;28;20226;-74
2022/08/13 01:55:41;;;;;;;0.00;0.00;;;16.20;99.90;15.00;96557.00;;;;5031948;28;20203;-75
2022/08/13 01:58:29;;;;;;;0.00;0.00;;;16.20;99.90;15.10;96557.00;;;;5018149;28;20262;-75
2022/08/13 02:01:03;;;;;;;0.00;0.00;;;16.20;99.90;15.10;96560.00;;;;5022138;28;20618;-75
2022/08/13 02:03:38;;;;;;;0.00;0.00;;;16.20;99.90;15.10;96523.00;;;;5046979;28;20253;-75
2022/08/13 02:06:10;;;;;;;0.10;0.10;;;16.20;99.90;15.10;96579.00;;;;5031191;28;20222;-74
2022/08/13 02:09:00;;;;;;;0.00;0.00;;;16.20;99.90;15.10;96546.00;;;;5032826;28;20276;-75
2022/08/13 02:11:33;;;;;;;0.10;0.10;;;16.20;99.90;15.00;96559.00;;;;5031059;28;20201;-75
2022/08/13 02:14:14;;;;;;;0.10;0.10;;;16.20;99.90;14.90;96560.00;;;;5031667;28;20249;-74
2022/08/13 02:16:50;;;;;;;0.00;0.00;;;16.10;99.90;14.90;96518.00;;;;5031657;28;20222;-75
2022/08/13 02:19:20;;;;;;;0.00;0.00;;;16.10;99.90;14.80;96567.00;;;;5041637;28;20190;-75
2022/08/13 02:21:59;;;;;;;0.00;0.00;;;16.10;99.90;14.80;96560.00;;;;5046705;28;20191;-75
2022/08/13 02:24:36;;;;;;;0.05;0.05;;;16.00;99.90;14.70;96564.00;;;;5042926;28;20210;-76
2022/08/13 02:27:07;;;;;;;0.00;0.00;;;16.00;99.90;14.70;96564.00;;;;5031742;28;20654;-76
2022/08/13 02:29:36;;;;;;;0.00;0.00;;;15.90;99.90;14.50;96564.00;;;;5031616;28;20198;-76
2022/08/13 02:32:07;;;;;;;0.00;0.00;;;15.80;99.90;14.70;96567.00;;;;5031634;28;20203;-77
2022/08/13 02:34:46;;;;;;;0.00;0.00;;;15.90;99.90;14.70;96578.00;;;;5031734;28;20198;-76
2022/08/13 02:37:16;;;;;;;0.00;0.00;;;15.90;99.90;14.60;96569.00;;;;5032374;28;20301;-76
2022/08/13 02:41:38;;;;;;;0.00;0.00;;;15.80;99.90;14.60;96560.00;;;;5032667;28;20669;-78
2022/08/13 02:43:02;;;;;;;0.00;0.00;;;15.70;99.90;14.50;96567.00;;;;5031370;28;20206;-75
2022/08/13 02:45:31;;;;;;;0.00;0.00;;;15.70;99.90;14.40;96614.00;;;;5030540;28;20235;-76
2022/08/13 02:48:05;;;;;;;0.10;0.10;;;15.60;99.90;14.30;96570.00;;;;5031848;28;20205;-77
2022/08/13 02:50:42;;;;;;;0.00;0.00;;;15.40;99.90;14.20;96597.00;;;;5032493;28;20191;-75
2022/08/13 02:53:14;;;;;;;0.10;0.10;;;15.40;99.90;14.30;96585.00;;;;5029386;28;20672;-75
2022/08/13 02:55:59;;;;;;;0.10;0.10;;;15.40;99.90;14.30;96613.00;;;;5013894;28;20227;-75
2022/08/13 02:58:28;;;;;;;0.10;0.10;;;15.40;99.90;14.40;96641.00;;;;5018837;28;20238;-75
2022/08/13 03:00:58;;;;;;;0.10;0.10;;;15.50;99.90;14.30;96662.00;;;;5026733;28;20218;-75
2022/08/13 03:03:26;;;;;;;0.00;0.00;;;15.50;99.90;14.30;96604.00;;;;5031272;28;20194;-76
2022/08/13 03:05:55;;;;;;;0.10;0.10;;;15.50;99.90;14.40;96530.00;;;;5031360;28;20286;-75
2022/08/13 03:08:28;;;;;;;0.00;0.00;;;15.50;99.90;14.40;96616.00;;;;5031282;28;20231;-76
2022/08/13 03:11:07;;;;;;;0.00;0.00;;;15.50;99.90;14.30;96527.00;;;;5035210;28;20282;-75
2022/08/13 03:13:42;;;;;;;0.10;0.10;;;15.40;99.90;14.20;96535.00;;;;5035158;28;20248;-76
2022/08/13 03:16:19;;;;;;;0.00;0.00;;;15.30;99.90;14.00;96493.00;;;;5035203;28;20202;-76
2022/08/13 03:18:47;;;;;;;0.10;0.10;;;15.20;99.90;14.00;96522.00;;;;5035322;28;20229;-74
2022/08/13 03:21:24;;;;;;;0.00;0.00;;;15.20;99.90;13.90;96485.00;;;;5034867;28;20195;-74
2022/08/13 03:24:14;;;;;;;0.10;0.10;;;15.10;99.90;13.90;96506.00;;;;5034729;28;20286;-74
2022/08/13 03:26:51;;;;;;;0.10;0.10;;;15.10;99.90;13.80;96514.00;;;;5035184;28;20288;-75
2022/08/13 03:29:24;;;;;;;0.10;0.10;;;15.00;99.90;13.80;96475.00;;;;5035277;28;20233;-76
2022/08/13 03:32:13;;;;;;;0.10;0.10;;;15.00;99.90;13.70;96510.00;;;;5034986;28;20198;-75
2022/08/13 03:34:42;;;;;;;0.10;0.10;;;14.90;99.90;13.60;96488.00;;;;5034537;28;20709;-75
2022/08/13 03:37:11;;;;;;;0.10;0.10;;;14.80;99.90;13.60;96527.00;;;;5036207;28;20588;-77
2022/08/13 03:39:41;;;;;;;0.00;0.00;;;14.80;99.90;13.60;96527.00;;;;5034895;28;20261;-78
2022/08/13 03:42:10;;;;;;;0.00;0.00;;;14.70;99.90;13.50;96515.00;;;;5036052;28;20284;-75
2022/08/13 03:44:41;;;;;;;0.10;0.10;;;14.70;99.90;13.50;96551.00;;;;5037348;28;20205;-77
2022/08/13 03:47:09;;;;;;;0.10;0.10;;;14.60;99.90;13.40;96548.00;;;;5034491;28;20229;-78
2022/08/13 03:49:57;;;;;;;0.10;0.10;;;14.60;99.90;13.50;96620.00;;;;5035079;28;20191;-78
2022/08/13 03:52:26;;;;;;;0.10;0.10;;;14.60;99.90;13.50;96523.00;;;;5034819;28;20605;-77
2022/08/13 03:55:09;;;;;;;0.10;0.10;;;14.60;99.90;13.50;96498.00;;;;5013487;28;20211;-75
2022/08/13 03:57:41;;;;;;;0.10;0.10;;;14.60;99.90;13.50;96536.00;;;;5038636;28;20778;-74
2022/08/13 04:00:33;;;;;;;0.10;0.10;;;14.70;99.90;13.50;96512.00;;;;5050652;28;21630;-75
2022/08/13 04:03:14;;;;;;;0.10;0.10;;;14.60;99.90;13.50;96504.00;;;;5033192;28;20191;-74
2022/08/13 04:05:43;;;;;;;0.03;0.03;;;14.70;99.90;13.50;96534.00;;;;5034000;28;20191;-74
2022/08/13 04:08:28;;;;;;;0.10;0.10;;;14.60;99.90;13.40;96512.00;;;;5034218;28;20265;-76
2022/08/13 04:10:58;;;;;;;0.10;0.10;;;14.60;99.90;13.40;96518.00;;;;5034711;28;20191;-75
2022/08/13 04:13:28;;;;;;;0.10;0.10;;;14.60;99.90;13.40;96534.00;;;;5033212;28;20795;-76
2022/08/13 04:16:21;;;;;;;0.08;0.08;;;14.60;99.90;13.30;96522.00;;;;5034534;28;20207;-76
2022/08/13 04:19:00;;;;;;;0.10;0.10;;;14.50;99.90;13.30;96530.00;;;;5034149;28;20214;-75
2022/08/13 04:21:32;;;;;;;0.10;0.10;;;14.50;99.90;13.30;96527.00;;;;5032744;28;20222;-75
2022/08/13 04:24:03;;;;;;;0.00;0.00;;;14.50;99.90;13.20;96517.00;;;;5035339;28;20245;-75
2022/08/13 04:26:33;;;;;;;0.08;0.08;;;14.40;99.90;13.20;96497.00;;;;5035076;28;20218;-76
2022/08/13 04:29:05;;;;;;;0.10;0.10;;;14.40;99.90;13.30;96514.00;;;;5035074;28;20265;-75
2022/08/13 04:31:37;;;;;;;0.00;0.00;;;14.40;99.90;13.20;96506.00;;;;5028189;28;20289;-74
2022/08/13 04:34:19;;;;;;;0.10;0.10;;;14.40;99.90;13.20;96540.00;;;;5031571;28;20273;-75
2022/08/13 04:37:07;;;;;;;0.10;0.10;;;14.40;99.90;13.20;96541.00;;;;5015025;28;20212;-77
2022/08/13 04:39:38;;;;;;;0.05;0.05;;;14.30;99.90;13.20;96559.00;;;;5026233;28;20215;-77
2022/08/13 04:42:26;;;;;;;0.08;0.08;;;14.40;99.90;13.20;96562.00;;;;5015006;28;20666;-75
2022/08/13 04:45:06;;;;;;;0.10;0.10;;;14.30;99.90;13.10;96560.00;;;;5035621;28;20233;-77
2022/08/13 04:47:41;;;;;;;0.10;0.10;;;14.30;99.90;13.00;96504.00;;;;5019043;28;20270;-75
2022/08/13 04:50:11;;;;;;;0.10;0.10;;;14.20;99.90;13.00;96492.00;;;;5027350;28;20209;-77
2022/08/13 04:52:40;;;;;;;0.10;0.10;;;14.20;99.90;12.90;96518.00;;;;5027196;28;20590;-77
2022/08/13 04:55:19;;;;;;;0.00;0.00;;;14.10;99.90;13.00;96519.00;;;;5035382;28;20211;-76
2022/08/13 04:57:49;;;;;;;0.10;0.10;;;14.10;99.90;13.00;96490.00;;;;5048731;28;20505;-76
2022/08/13 05:00:32;;;;;;;0.10;0.10;;;14.20;99.90;13.10;96504.00;;;;5037022;28;20570;-75
2022/08/13 05:03:16;;;;;;;0.10;0.10;;;14.20;99.90;13.20;96516.00;;;;5025299;28;20198;-76
2022/08/13 05:05:49;;;;;;;0.00;0.00;;;14.30;99.90;13.30;96540.00;;;;5020468;28;20214;-75
2022/08/13 05:08:18;;;;;;;0.10;0.10;;;14.40;99.90;13.30;96551.00;;;;5013025;28;20196;-76
2022/08/13 05:10:49;;;;;;;0.08;0.08;;;14.50;99.90;13.40;96543.00;;;;5031255;28;20203;-76
2022/08/13 05:13:27;;;;;;;0.10;0.10;;;14.50;99.90;13.40;96557.00;;;;5028898;28;20285;-74
2022/08/13 05:16:10;;;;;;;0.10;0.10;;;14.50;99.90;13.30;96510.00;;;;5026194;28;20242;-76
2022/08/13 05:18:45;;;;;;;0.00;0.00;;;14.40;99.90;13.30;96529.00;;;;5032320;28;20292;-75
2022/08/13 05:21:15;;;;;;;0.10;0.10;;;14.50;99.90;13.40;96517.00;;;;5031937;28;20198;-76
2022/08/13 05:23:50;;;;;;;0.10;0.10;;;14.50;99.90;13.40;96512.00;;;;5024982;28;20726;-74
2022/08/13 05:26:38;;;;;;;0.10;0.10;;;14.50;99.90;13.40;96519.00;;;;5017498;28;20285;-76
2022/08/13 05:29:21;;;;;;;0.10;0.10;;;14.50;99.90;13.50;96679.00;;;;5030905;28;20260;-76
2022/08/13 05:31:51;;;;;;;0.10;0.10;;;14.50;99.90;13.60;96672.00;;;;5032334;28;20229;-76
2022/08/13 05:34:26;;;;;;;0.08;0.08;;;14.60;99.90;13.70;96641.00;;;;5031803;28;20214;-74
2022/08/13 05:36:55;;;;;;;0.00;0.00;;;14.70;99.90;13.70;96625.00;;;;5031792;28;20273;-74
2022/08/13 05:39:45;;;;;;;0.08;0.08;;;14.70;99.90;13.80;96661.00;;;;5032422;28;20226;-77
2022/08/13 05:42:19;;;;;;;0.10;0.10;;;14.80;99.90;13.80;96662.00;;;;5027949;28;20194;-77
2022/08/13 05:44:56;;;;;;;0.10;0.10;;;14.90;99.90;13.90;96596.00;;;;5031390;28;20206;-75
2022/08/13 05:47:27;;;;;;;0.03;0.03;;;15.00;99.90;14.10;96611.00;;;;5031859;28;20223;-77
2022/08/13 05:50:08;;;;;;;0.10;0.10;;;15.20;99.90;14.10;96641.00;;;;5032463;28;20233;-77
2022/08/13 05:52:39;;;;;;;0.08;0.08;;;15.20;99.90;14.20;96633.00;;;;5032560;28;20191;-76
2022/08/13 05:55:18;;;;;;;0.10;0.10;;;15.30;99.90;14.30;96629.00;;;;5031165;28;20186;-76
2022/08/13 05:58:10;;;;;;;0.00;0.00;;;15.40;99.90;14.50;96629.00;;;;5021355;28;20192;-76
2022/08/13 06:03:42;;;;;;;0.00;0.00;;;15.70;99.90;14.80;96655.00;;;;5031778;28;20285;-76
2022/08/13 06:06:32;;;;;;;0.10;0.10;;;15.90;99.90;14.80;96622.00;;;;5030691;28;20219;-76
2022/08/13 06:09:04;;;;;;;0.00;0.00;;;16.00;99.90;14.90;96455.00;;;;5031800;28;20230;-76
2022/08/13 06:11:40;;;;;;;0.10;0.10;;;16.00;99.90;15.00;96425.00;;;;5031884;28;20204;-76
2022/08/13 06:14:34;;;;;;;0.10;0.10;;;16.20;99.90;15.10;96396.00;;;;5021130;28;20191;-76
2022/08/13 06:17:06;;;;;;;0.00;0.00;;;16.30;99.90;15.20;96385.00;;;;5012570;28;20215;-76
2022/08/13 06:19:44;;;;;;;0.00;0.00;;;16.30;99.90;15.30;96390.00;;;;5022452;28;20226;-76
2022/08/13 06:22:20;;;;;;;0.00;0.00;;;16.40;99.90;15.40;96397.00;;;;5032396;28;20191;-76
2022/08/13 06:24:51;;;;;;;0.00;0.00;;;16.60;99.90;15.50;96358.00;;;;5032736;28;20430;-76
2022/08/13 06:27:24;;;;;;;0.00;0.00;;;16.60;99.90;15.50;96363.00;;;;5033890;22;20231;-72
2022/08/13 06:30:17;;;;;;;0.00;0.00;;;16.70;99.90;15.70;96366.00;;;;5029660;28;20194;-72
2022/08/13 06:33:01;;;;;;;0.00;0.00;;;16.80;99.90;15.80;96353.00;;;;5031684;28;20219;-72
2022/08/13 06:35:51;;;;;;;0.00;0.00;;;16.80;99.90;15.90;96365.00;;;;5031894;28;20566;-72
2022/08/13 06:38:29;;;;;;;0.10;0.10;;;17.00;99.90;16.00;96342.00;;;;5031045;28;20234;-72
2022/08/13 06:41:03;;;;;;;0.00;0.00;;;17.10;99.90;16.00;96363.00;;;;5030947;28;20249;-72
2022/08/13 06:43:35;;;;;;;0.00;0.00;;;17.10;99.90;16.20;96378.00;;;;5032291;28;20206;-72
2022/08/13 06:46:25;;;;;;;0.00;0.00;;;17.30;99.90;16.40;96385.00;;;;5037966;28;20242;-73
2022/08/13 06:48:58;;;;;;;0.00;0.00;;;17.40;99.90;16.50;96384.00;;;;5037873;28;20245;-72
2022/08/13 06:51:31;;;;;;;0.00;0.00;;;17.50;99.90;16.60;96387.00;;;;5038075;28;20217;-72
2022/08/13 06:54:08;;;;;;;0.10;0.10;;;17.60;99.90;16.70;96394.00;;;;5038127;28;20198;-72
2022/08/13 06:56:59;;;;;;;0.00;0.00;;;17.80;99.90;17.00;96400.00;;;;5042158;28;20214;-72
2022/08/13 06:59:49;;;;;;;0.00;0.00;;;17.90;99.90;17.20;96416.00;;;;5040314;28;20214;-71
2022/08/13 07:02:40;;;;;;;0.00;0.00;;;18.20;99.90;17.30;96423.00;;;;5035583;28;20236;-70
2022/08/13 07:05:12;;;;;;;0.00;0.00;;;18.40;99.90;17.50;96419.00;;;;5037873;28;20245;-71
2022/08/13 07:07:50;;;;;;;0.00;0.00;;;18.50;99.90;17.70;96438.00;;;;5036199;28;20574;-71
2022/08/13 07:10:21;;;;;;;0.00;0.00;;;18.70;99.90;17.90;96452.00;;;;5036361;28;20206;-70
2022/08/13 07:12:51;;;;;;;0.00;0.00;;;18.80;99.90;18.00;96467.00;;;;5038079;28;20190;-71
2022/08/13 07:15:19;;;;;;;0.00;0.00;;;19.00;99.90;18.20;96477.00;;;;5038178;28;20191;-71
2022/08/13 07:18:08;;;;;;;0.00;0.00;;;19.10;99.90;18.40;96488.00;;;;5034652;28;20708;-71
2022/08/13 07:20:38;;;;;;;0.00;0.00;;;19.30;99.90;18.60;96520.00;;;;5037345;28;20695;-71
2022/08/13 07:23:06;;;;;;;0.00;0.00;;;19.50;99.90;18.80;96531.00;;;;5037775;28;20531;-71
2022/08/13 07:25:58;;;;;;;0.00;0.00;;;19.70;99.90;19.00;96526.00;;;;5035613;28;20264;-71
2022/08/13 07:28:28;;;;;;;0.00;0.00;;;19.90;99.90;19.20;96520.00;;;;5018059;28;20264;-71
2022/08/13 07:31:19;;;;;;;0.00;0.00;;;20.10;99.90;19.40;96539.00;;;;5037092;28;20724;-71
2022/08/13 07:33:53;;;;;;;0.00;0.00;;;20.20;99.90;19.50;96494.00;;;;5039141;28;20187;-71
2022/08/13 07:36:29;;;;;;;0.00;0.00;;;20.40;99.90;19.70;96531.00;;;;5037681;28;20304;-71
2022/08/13 07:38:58;;;;;;;0.00;0.00;;;20.60;99.90;19.90;96520.00;;;;5038374;28;20602;-71
2022/08/13 07:41:28;;;;;;;0.00;0.00;;;20.70;99.90;20.00;96559.00;;;;5037323;28;20309;-71
2022/08/13 07:44:00;;;;;;;0.00;0.00;;;20.80;99.90;20.20;96545.00;;;;5038335;28;20253;-71
2022/08/13 07:46:42;;;;;;;0.00;0.00;;;21.00;99.90;20.50;96542.00;;;;5036939;28;20218;-71
2022/08/13 07:49:26;;;;;;;0.00;0.00;;;21.20;99.90;20.60;96557.00;;;;5039006;28;20199;-72
2022/08/13 07:52:13;;;;;;;0.00;0.00;;;21.40;99.90;20.90;96572.00;;;;5039729;28;20689;-72
2022/08/13 07:54:45;;;;;;;0.00;0.00;;;21.60;99.90;21.10;96566.00;;;;5039082;28;20199;-71
2022/08/13 07:57:18;;;;;;;0.00;0.00;;;21.80;99.90;21.30;96575.00;;;;5042643;28;20214;-71
2022/08/13 07:59:55;;;;;;;0.00;0.00;;;22.00;99.90;21.50;96590.00;;;;5058767;28;20194;-72
2022/08/13 08:02:44;;;;;;;0.00;0.00;;;22.20;99.90;21.70;96601.00;;;;5020285;28;20671;-72
2022/08/13 08:05:15;;;;;;;0.00;0.00;;;22.50;99.90;21.90;96617.00;;;;5040815;28;20195;-71
2022/08/13 08:07:50;;;;;;;0.00;0.00;;;22.70;99.90;22.20;96613.00;;;;5041792;28;20268;-73
2022/08/13 08:10:39;;;;;;;0.00;0.00;;;22.90;99.90;22.40;96661.00;;;;5030934;28;20202;-71
2022/08/13 08:13:13;;;;;;;0.00;0.00;;;23.10;99.90;22.60;96672.00;;;;5063633;28;20213;-72
2022/08/13 08:15:44;;;;;;;0.00;0.00;;;23.30;99.90;22.80;96691.00;;;;5041127;28;20302;-72
2022/08/13 08:18:32;;;;;;;0.00;0.00;;;23.50;99.90;23.00;96652.00;;;;5038366;28;20195;-72
2022/08/13 08:21:23;;;;;;;0.00;0.00;;;23.70;99.90;23.20;96615.00;;;;5033313;28;20215;-71
2022/08/13 08:24:13;;;;;;;0.00;0.00;;;23.90;99.90;23.40;96590.00;;;;5035275;28;20245;-71
2022/08/13 08:26:59;;;;;;;0.00;0.00;;;24.20;99.90;23.60;96540.00;;;;5028385;28;20299;-72
2022/08/13 08:29:31;;;;;;;0.00;0.00;;;24.40;99.60;23.70;96574.00;;;;5036608;28;20282;-72
2022/08/13 08:32:08;;;;;;;0.00;0.00;;;24.50;99.60;24.00;96663.00;;;;5035875;28;20646;-72
2022/08/13 08:34:41;;;;;;;0.00;0.00;;;24.70;99.30;24.10;96621.00;;;;5036268;28;20221;-72
2022/08/13 08:42:35;;;;;;;0.00;0.00;;;24.90;98.80;24.30;96624.00;;;;5017134;28;20227;-72
2022/08/13 08:43:00;;;;;;;0.00;0.00;;;25.10;97.90;24.50;96581.00;;;;5027043;28;20272;-71
2022/08/13 08:45:53;;;;;;;0.00;0.00;;;25.30;98.00;24.60;96589.00;;;;5038241;28;20195;-71
2022/08/13 08:48:41;;;;;;;0.00;0.00;;;25.40;97.70;24.70;96575.00;;;;5015860;28;20195;-72
2022/08/13 08:51:11;;;;;;;0.00;0.00;;;25.50;97.30;24.90;96590.00;;;;5027265;28;20203;-72
2022/08/13 08:53:49;;;;;;;0.00;0.00;;;25.60;97.30;25.00;96595.00;;;;5038757;28;20224;-71
2022/08/13 08:56:38;;;;;;;0.00;0.00;;;25.70;97.20;25.00;96550.00;;;;5053666;28;20211;-71
2022/08/13 08:59:23;;;;;;;0.00;0.00;;;25.80;97.30;25.30;96612.00;;;;5053566;28;20563;-71
2022/08/13 09:01:55;;;;;;;0.00;0.00;;;26.00;96.50;25.50;96620.00;;;;5037036;28;20603;-72
2022/08/13 09:04:29;;;;;;;0.00;0.00;;;26.20;96.00;25.70;96614.00;;;;5030599;28;20199;-72
2022/08/13 09:07:19;;;;;;;0.00;0.00;;;26.30;95.80;25.90;96615.00;;;;5028818;28;20219;-72
2022/08/13 09:09:55;;;;;;;0.00;0.00;;;26.50;95.30;25.80;96656.00;;;;5023757;28;20196;-72
2022/08/13 09:12:25;;;;;;;0.00;0.00;;;26.50;95.20;25.80;96676.00;;;;5026485;28;20194;-71
2022/08/13 09:14:57;;;;;;;0.00;0.00;;;26.50;95.30;25.70;96659.00;;;;5025376;28;20541;-71
2022/08/13 09:17:28;;;;;;;0.00;0.00;;;26.50;95.50;25.80;96665.00;;;;5021507;28;20251;-71
2022/08/13 09:20:16;;;;;;;0.00;0.00;;;26.50;95.50;25.70;96633.00;;;;5013904;28;20232;-71
2022/08/13 09:22:48;;;;;;;0.00;0.00;;;26.40;95.50;25.60;96606.00;;;;5014702;28;20249;-71
2022/08/13 09:25:26;;;;;;;0.00;0.00;;;26.40;95.60;25.70;96635.00;;;;5033970;28;20277;-72
2022/08/13 09:27:56;;;;;;;0.00;0.00;;;26.40;95.70;25.80;96676.00;;;;5033390;28;20227;-72
2022/08/13 09:30:43;;;;;;;0.00;0.00;;;26.50;95.50;25.70;96632.00;;;;5038663;28;20242;-72
2022/08/13 09:33:18;;;;;;;0.00;0.00;;;26.50;95.40;26.00;96662.00;;;;5044990;28;20187;-71
2022/08/13 09:36:09;;;;;;;0.00;0.00;;;26.60;95.20;26.00;96649.00;;;;5046480;28;20195;-73
2022/08/13 09:38:44;;;;;;;0.00;0.00;;;26.60;95.20;26.10;96593.00;;;;5048212;28;20229;-72
2022/08/13 09:41:25;;;;;;;0.00;0.00;;;26.70;95.20;26.30;96613.00;;;;5037280;28;20306;-72
2022/08/13 09:43:57;;;;;;;0.00;0.00;;;26.90;95.10;26.40;96586.00;;;;5041361;28;20221;-72
2022/08/13 09:46:25;;;;;;;0.00;0.00;;;27.00;94.50;26.30;96625.00;;;;5012889;28;20226;-71
2022/08/13 09:48:59;;;;;;;0.00;0.00;;;27.00;94.40;26.40;96613.00;;;;5011817;28;20234;-71
2022/08/13 09:51:35;;;;;;;0.00;0.00;;;27.00;94.70;26.30;96577.00;;;;5012908;28;20200;-72
2022/08/13 09:54:23;;;;;;;0.00;0.00;;;27.00;94.80;26.40;96597.00;;;;5031711;28;20625;-71
2022/08/13 09:56:58;;;;;;;0.00;0.00;;;27.00;94.70;26.40;96599.00;;;;5049025;28;20233;-72
2022/08/13 09:59:29;;;;;;;0.00;0.00;;;27.10;94.40;26.40;96586.00;;;;5012035;28;20291;-71
2022/08/13 10:02:09;;;;;;;0.00;0.00;;;27.10;94.30;26.30;96562.00;;;;5012524;28;20771;-72
2022/08/13 10:04:42;;;;;;;0.00;0.00;;;27.00;94.20;26.40;96597.00;;;;5031273;28;20201;-72
2022/08/13 10:07:14;;;;;;;0.00;0.00;;;27.10;93.90;26.40;96611.00;;;;5031422;28;20211;-72
2022/08/13 10:09:49;;;;;;;0.00;0.00;;;27.10;93.90;26.50;96610.00;;;;5032198;28;20253;-72
2022/08/13 10:12:37;;;;;;;0.00;0.00;;;27.10;93.60;26.40;96554.00;;;;5031990;28;20191;-71
2022/08/13 10:15:10;;;;;;;0.00;0.00;;;27.10;94.00;26.40;96547.00;;;;5031254;28;20278;-72
2022/08/13 10:17:53;;;;;;;0.00;0.00;;;27.00;94.20;26.30;96532.00;;;;5031142;28;20286;-71
2022/08/13 10:20:29;;;;;;;0.00;0.00;;;27.00;94.40;26.30;96551.00;;;;5031299;28;20191;-72
2022/08/13 10:22:58;;;;;;;0.00;0.00;;;27.00;94.30;26.50;96549.00;;;;5030760;28;20743;-72
2022/08/13 10:25:28;;;;;;;0.00;0.00;;;27.10;94.10;26.60;96537.00;;;;5031341;28;20206;-71
2022/08/13 10:28:17;;;;;;;0.00;0.00;;;27.20;93.80;26.50;96560.00;;;;5031410;28;20597;-72
2022/08/13 10:31:00;;;;;;;0.00;0.00;;;27.20;93.80;26.50;96634.00;;;;5021304;28;20205;-72
2022/08/13 10:33:52;;;;;;;0.00;0.00;;;27.10;93.90;26.40;96690.00;;;;5020494;28;20203;-72
2022/08/13 10:36:22;;;;;;;0.00;0.00;;;27.10;93.30;26.50;96574.00;;;;5030366;28;20289;-72
2022/08/13 10:39:01;;;;;;;0.00;0.00;;;27.10;93.20;26.80;96592.00;;;;5031522;28;20720;-72
2022/08/13 10:41:36;;;;;;;0.00;0.00;;;27.30;92.40;27.00;96618.00;;;;5031730;28;20218;-74
2022/08/13 10:44:24;;;;;;;0.00;0.00;;;27.50;92.60;27.10;96605.00;;;;5035078;28;20257;-73
2022/08/13 10:46:55;;;;;;;0.00;0.00;;;27.70;92.20;27.20;96552.00;;;;5035450;28;20211;-74
2022/08/13 10:49:24;;;;;;;0.00;0.00;;;27.70;92.20;27.20;96529.00;;;;5036008;28;20195;-73
2022/08/13 10:51:53;;;;;;;0.00;0.00;;;27.80;92.50;27.50;96537.00;;;;5035084;28;20227;-75
2022/08/13 10:54:32;;;;;;;0.00;0.00;;;28.00;92.20;27.50;96582.00;;;;5035916;28;20217;-73
2022/08/13 10:57:03;;;;;;;0.00;0.00;;;28.00;92.30;27.50;96644.00;;;;5036846;28;20218;-74
2022/08/13 10:59:33;;;;;;;0.00;0.00;;;28.00;92.20;27.50;96621.00;;;;5033482;28;20693;-74
2022/08/13 11:02:06;;;;;;;0.00;0.00;;;28.00;92.30;27.70;96636.00;;;;5033130;28;20270;-74
2022/08/13 11:04:36;;;;;;;0.00;0.00;;;28.20;92.30;27.70;96627.00;;;;5036101;28;20221;-74
2022/08/13 11:07:10;;;;;;;0.00;0.00;;;28.20;92.00;27.70;96623.00;;;;5029440;28;20282;-73
2022/08/13 11:09:39;;;;;;;0.00;0.00;;;28.20;91.60;27.70;96621.00;;;;5032170;28;20610;-73
2022/08/13 11:12:10;;;;;;;0.00;0.00;;;28.20;91.60;27.80;96628.00;;;;5034346;28;20195;-74
2022/08/13 11:14:41;;;;;;;0.00;0.00;;;28.20;91.70;28.00;96653.00;;;;5032562;28;20565;-73
2022/08/13 11:17:11;;;;;;;0.00;0.00;;;28.30;92.00;28.10;96612.00;;;;5033884;28;20756;-74
2022/08/13 11:20:03;;;;;;;0.00;0.00;;;28.50;92.60;28.00;96624.00;;;;5013614;28;20195;-73
2022/08/13 11:22:37;;;;;;;0.00;0.00;;;28.50;92.50;28.10;96649.00;;;;5013891;28;20247;-75
2022/08/13 11:25:07;;;;;;;0.00;0.00;;;28.60;92.60;28.20;96653.00;;;;5029661;28;20211;-74
2022/08/13 11:27:55;;;;;;;0.00;0.00;;;28.70;92.70;28.10;96612.00;;;;5014139;28;20242;-74
2022/08/13 11:30:24;;;;;;;0.00;0.00;;;28.70;92.70;27.90;96595.00;;;;5035567;28;20203;-74
2022/08/13 11:33:05;;;;;;;0.00;0.00;;;28.50;92.90;27.70;96587.00;;;;5034863;28;20268;-74
2022/08/13 11:35:41;;;;;;;0.00;0.00;;;28.30;93.20;27.60;96613.00;;;;5040031;28;20191;-74
2022/08/13 11:38:19;;;;;;;0.00;0.00;;;28.20;93.40;27.40;96537.00;;;;5039328;28;20222;-74
2022/08/13 11:40:50;;;;;;;0.00;0.00;;;28.00;93.70;27.30;96580.00;;;;5041079;28;20195;-75
2022/08/13 11:43:22;;;;;;;0.00;0.00;;;27.90;93.90;27.10;96563.00;;;;5038833;28;20698;-74
2022/08/13 11:46:10;;;;;;;0.00;0.00;;;27.70;94.10;26.70;96549.00;;;;5040840;28;20218;-74
2022/08/13 11:48:41;;;;;;;0.00;0.00;;;27.50;94.40;26.70;96551.00;;;;5040071;28;20249;-75
2022/08/13 11:51:09;;;;;;;0.00;0.00;;;27.40;94.70;26.60;96544.00;;;;5042842;28;20200;-74